Time;durP1;ratioP1;P1;durP2;ratioP2;P2;SDS_P1;SDS_P2;PMS_P1;PMS_P2;Temp;Humidity;BMP_temperature;BMP_pressure;BME280_temperature;BME280_humidity;BME280_pressure;Samples;Min_cycle;Max_cycle;Signal;HPM_P1;HPM_P2
2021/10/20 00:01:27;;;;;;;6.37;6.07;;;;;;;12.37;92.64;100856.34;4393322;32;20135;-69
2021/10/20 00:03:53;;;;;;;4.40;4.20;;;;;;;12.36;92.50;100862.53;4378343;32;20076;-69
2021/10/20 00:06:18;;;;;;;6.40;6.10;;;;;;;11.30;92.51;100673.88;4391670;32;20066;-69
2021/10/20 00:08:43;;;;;;;4.32;4.12;;;;;;;12.38;92.63;100847.50;4390628;32;20124;-69
2021/10/20 00:11:09;;;;;;;4.47;4.28;;;;;;;12.40;92.33;100827.22;4397208;32;20056;-70
2021/10/20 00:13:34;;;;;;;17.75;16.85;;;;;;;11.44;91.83;100679.22;4308401;32;20072;-69
2021/10/20 00:15:59;;;;;;;4.50;4.30;;;;;;;12.44;91.48;100835.78;4368832;32;20575;-71
2021/10/20 00:18:25;;;;;;;5.93;5.65;;;;;;;12.39;91.15;100822.91;4393013;32;20151;-71
2021/10/20 00:20:51;;;;;;;4.43;4.22;;;;;;;12.43;91.47;100826.19;4367707;32;20450;-71
2021/10/20 00:23:17;;;;;;;6.03;5.72;;;;;;;12.42;91.59;100816.59;4383548;32;20683;-71
2021/10/20 00:25:42;;;;;;;4.62;4.43;;;;;;;12.17;91.34;100773.28;4378172;32;20394;-71
2021/10/20 00:28:08;;;;;;;4.40;4.20;;;;;;;12.46;90.96;100820.75;4379717;32;20065;-71
2021/10/20 00:30:33;;;;;;;4.37;4.18;;;;;;;12.43;90.36;100806.00;4387411;32;20615;-71
2021/10/20 00:32:59;;;;;;;4.20;4.00;;;;;;;12.53;90.46;100812.41;4378112;32;20070;-71
2021/10/20 00:35:24;;;;;;;6.25;5.95;;;;;;;12.57;90.10;100808.66;4368132;32;20083;-71
2021/10/20 00:37:49;;;;;;;4.55;4.35;;;;;;;12.58;89.81;100801.59;4378845;32;20207;-71
2021/10/20 00:40:15;;;;;;;5.85;5.57;;;;;;;12.64;89.49;100803.03;4398567;32;20085;-71
2021/10/20 00:42:41;;;;;;;4.72;4.53;;;;;;;12.57;89.55;100794.66;4379225;32;20064;-71
2021/10/20 00:45:07;;;;;;;4.40;4.20;;;;;;;12.60;89.37;100797.09;4379409;32;20603;-72
2021/10/20 00:47:33;;;;;;;4.62;4.43;;;;;;;12.29;89.49;100746.25;4378507;32;20136;-71
2021/10/20 00:49:58;;;;;;;4.70;4.50;;;;;;;12.58;89.35;100791.91;4373939;32;20073;-71
2021/10/20 00:52:24;;;;;;;6.47;6.18;;;;;;;12.59;89.62;100787.50;4384862;32;20077;-71
2021/10/20 00:54:52;;;;;;;4.60;4.40;;;;;;;12.58;89.34;100781.38;4365188;32;20597;-71
2021/10/20 00:57:17;;;;;;;6.50;6.20;;;;;;;12.57;88.76;100787.59;4364224;32;20188;-71
2021/10/20 00:59:43;;;;;;;4.60;4.40;;;;;;;12.54;89.23;100790.41;4355722;32;20575;-71
2021/10/20 01:02:08;;;;;;;4.60;4.40;;;;;;;12.51;89.29;100789.75;4351990;32;20147;-72
2021/10/20 01:04:35;;;;;;;4.82;4.62;;;;;;;12.45;89.42;100779.56;4366690;32;20276;-71
2021/10/20 01:07:01;;;;;;;4.40;4.20;;;;;;;12.42;89.74;100771.88;4367025;32;20162;-71
2021/10/20 01:09:26;;;;;;;6.35;6.05;;;;;;;12.38;89.59;100774.66;4358848;32;20709;-71
2021/10/20 01:11:53;;;;;;;4.60;4.40;;;;;;;12.36;90.02;100778.31;4368020;32;20120;-71
2021/10/20 01:14:18;;;;;;;5.70;5.47;;;;;;;12.37;90.05;100775.63;4353950;32;20176;-70
2021/10/20 01:16:43;;;;;;;4.70;4.50;;;;;;;12.38;89.89;100768.56;4364819;32;20678;-70
2021/10/20 01:19:09;;;;;;;4.53;4.32;;;;;;;11.33;89.57;100597.53;4374828;32;20081;-70
2021/10/20 01:21:34;;;;;;;4.57;4.37;;;;;;;12.43;89.11;100765.63;4366814;32;20159;-70
2021/10/20 01:24:00;;;;;;;4.80;4.60;;;;;;;12.40;89.49;100755.31;4351114;32;20076;-70
2021/10/20 01:26:26;;;;;;;6.05;5.75;;;;;;;12.30;89.31;100747.09;4349390;32;20061;-70
2021/10/20 01:28:51;;;;;;;4.37;4.18;;;;;;;12.28;89.66;100747.19;4355008;32;20079;-70
2021/10/20 01:31:17;;;;;;;6.25;5.95;;;;;;;12.34;89.51;100751.25;4361666;32;20191;-69
2021/10/20 01:33:42;;;;;;;4.40;4.20;;;;;;;12.35;89.28;100751.16;4353116;32;20107;-70
2021/10/20 01:36:07;;;;;;;4.45;4.25;;;;;;;12.35;89.10;100740.62;4363359;32;20098;-70
2021/10/20 01:38:33;;;;;;;4.47;4.28;;;;;;;12.34;89.03;100738.94;4374581;32;20065;-70
2021/10/20 01:40:58;;;;;;;4.50;4.30;;;;;;;12.24;88.85;100718.53;4367089;32;20073;-70
2021/10/20 01:43:23;;;;;;;6.45;6.15;;;;;;;12.28;88.87;100715.59;4351478;32;20560;-70
2021/10/20 01:45:49;;;;;;;4.55;4.35;;;;;;;12.45;88.61;100719.03;4373822;32;20293;-69
2021/10/20 01:48:14;;;;;;;6.15;5.85;;;;;;;12.41;87.94;100722.78;4380660;32;20152;-70
2021/10/20 01:50:39;;;;;;;5.07;4.87;;;;;;;12.38;88.09;100722.03;4350964;32;20065;-69
2021/10/20 01:53:05;;;;;;;4.55;4.35;;;;;;;12.35;88.24;100716.97;4378431;32;20082;-70
2021/10/20 01:55:30;;;;;;;6.18;5.87;;;;;;;12.32;88.46;100719.75;4373174;32;21001;-68
2021/10/20 01:57:56;;;;;;;4.70;4.50;;;;;;;12.31;88.53;100704.91;4347560;32;20092;-69
2021/10/20 02:00:21;;;;;;;4.57;4.37;;;;;;;12.34;88.89;100712.63;4365929;32;20073;-70
2021/10/20 02:02:46;;;;;;;4.85;4.65;;;;;;;12.35;88.86;100710.84;4383943;32;20462;-70
2021/10/20 02:05:12;;;;;;;4.62;4.43;;;;;;;12.34;88.68;100711.78;4369304;32;20345;-70
2021/10/20 02:07:38;;;;;;;4.50;4.30;;;;;;;12.32;88.85;100711.84;4354286;32;20646;-70
2021/10/20 02:10:07;;;;;;;4.70;4.50;;;;;;;12.23;88.65;100688.75;4368398;32;20092;-68
2021/10/20 02:12:32;;;;;;;4.50;4.30;;;;;;;12.41;88.67;100702.59;4357310;32;20239;-69
2021/10/20 02:14:58;;;;;;;4.50;4.30;;;;;;;12.36;88.14;100704.63;4378534;32;20070;-70
2021/10/20 02:17:23;;;;;;;4.62;4.43;;;;;;;12.20;88.50;100682.81;4356723;32;20073;-68
2021/10/20 02:19:48;;;;;;;4.50;4.30;;;;;;;12.29;88.66;100696.28;4376378;32;20696;-70
2021/10/20 02:22:14;;;;;;;4.43;4.22;;;;;;;12.23;88.92;100699.25;4353272;32;20418;-71
2021/10/20 02:24:39;;;;;;;5.57;5.37;;;;;;;11.97;89.67;100656.91;4360999;32;20610;-70
2021/10/20 02:27:04;;;;;;;5.35;4.97;;;;;;;11.88;89.65;100641.63;4352623;32;20084;-70
2021/10/20 02:29:31;;;;;;;5.97;5.68;;;;;;;12.13;89.73;100688.44;4361311;32;20235;-70
2021/10/20 02:31:56;;;;;;;4.53;4.32;;;;;;;12.13;90.03;100684.97;4349543;32;20069;-70
2021/10/20 02:34:22;;;;;;;5.22;4.95;;;;;;;12.14;89.86;100684.00;4362540;32;20626;-70
2021/10/20 02:36:47;;;;;;;4.43;4.22;;;;;;;11.62;90.32;100602.87;4347175;32;20655;-70
2021/10/20 02:39:13;;;;;;;4.72;4.53;;;;;;;12.10;90.39;100675.44;4377697;32;20167;-70
2021/10/20 02:41:38;;;;;;;5.53;5.32;;;;;;;12.12;90.26;100673.56;4358771;32;20164;-70
2021/10/20 02:44:04;;;;;;;4.53;4.32;;;;;;;12.11;90.50;100668.44;4371451;32;20065;-70
2021/10/20 02:46:30;;;;;;;5.75;5.53;;;;;;;12.12;90.12;100665.69;4371510;32;20061;-70
2021/10/20 02:48:55;;;;;;;4.78;4.57;;;;;;;12.09;89.99;100665.03;4362552;32;20069;-69
2021/10/20 02:51:20;;;;;;;4.50;4.30;;;;;;;12.11;90.23;100658.75;4362921;32;20215;-70
2021/10/20 02:53:46;;;;;;;5.95;5.65;;;;;;;12.08;90.26;100660.69;4366608;32;20077;-70
2021/10/20 02:56:13;;;;;;;4.57;4.37;;;;;;;12.05;90.52;100653.84;4361043;32;21286;-69
2021/10/20 02:58:38;;;;;;;4.70;4.50;;;;;;;12.06;90.88;100654.69;4380844;32;20085;-69
2021/10/20 03:01:04;;;;;;;6.35;4.70;;;;;;;12.05;90.67;100650.37;4364824;32;20100;-69
2021/10/20 03:03:29;;;;;;;4.43;4.22;;;;;;;12.04;90.75;100649.50;4378608;32;20065;-69
2021/10/20 03:05:55;;;;;;;6.45;6.15;;;;;;;12.02;91.02;100642.66;4371702;32;20595;-69
2021/10/20 03:08:20;;;;;;;4.30;4.10;;;;;;;12.01;91.13;100644.44;4353493;32;20084;-69
2021/10/20 03:10:45;;;;;;;5.60;5.40;;;;;;;12.00;91.01;100634.00;4377445;32;20687;-69
2021/10/20 03:13:11;;;;;;;4.35;4.15;;;;;;;11.98;91.44;100627.03;4361085;32;20097;-69
2021/10/20 03:15:36;;;;;;;4.60;4.40;;;;;;;12.01;91.05;100626.03;4374604;32;20855;-69
2021/10/20 03:18:01;;;;;;;4.60;4.40;;;;;;;12.00;91.29;100623.47;4383061;32;20163;-68
2021/10/20 03:20:27;;;;;;;4.30;4.10;;;;;;;12.01;91.42;100633.06;4360170;32;20089;-69
2021/10/20 03:22:52;;;;;;;6.35;6.05;;;;;;;12.05;91.34;100629.34;4373706;32;20111;-69
2021/10/20 03:25:17;;;;;;;4.80;4.60;;;;;;;12.02;91.03;100622.44;4375890;32;20346;-69
2021/10/20 03:27:45;;;;;;;6.07;5.78;;;;;;;11.95;90.92;100618.50;4385508;32;20742;-68
2021/10/20 03:30:11;;;;;;;4.45;4.25;;;;;;;11.99;91.29;100622.66;4376625;32;20428;-69
2021/10/20 03:32:36;;;;;;;4.55;4.35;;;;;;;12.01;91.26;100633.91;4350564;32;20429;-69
2021/10/20 03:35:02;;;;;;;4.60;4.40;;;;;;;11.99;91.51;100633.16;4377992;32;20065;-69
2021/10/20 03:37:27;;;;;;;4.45;4.25;;;;;;;12.00;91.29;100631.38;4378433;32;20101;-69
2021/10/20 03:39:53;;;;;;;4.35;4.15;;;;;;;12.00;91.40;100632.22;4374710;32;20070;-68
2021/10/20 03:42:19;;;;;;;4.55;4.32;;;;;;;12.00;91.43;100629.59;4376261;32;20096;-69
2021/10/20 03:44:45;;;;;;;4.50;4.30;;;;;;;12.06;91.22;100631.84;4390800;32;20611;-69
2021/10/20 03:47:10;;;;;;;5.87;5.60;;;;;;;12.11;91.00;100621.91;4363626;32;20462;-69
2021/10/20 03:49:35;;;;;;;4.45;4.25;;;;;;;12.15;90.65;100614.69;4361669;32;20092;-68
2021/10/20 03:52:02;;;;;;;6.20;5.90;;;;;;;12.14;90.41;100611.19;4364925;32;20307;-67
2021/10/20 03:54:27;;;;;;;4.97;4.75;;;;;;;12.16;90.12;100614.56;4356618;32;20061;-69
2021/10/20 03:56:52;;;;;;;5.37;5.10;;;;;;;12.07;89.93;100590.63;4364204;32;20077;-70
2021/10/20 03:59:18;;;;;;;4.80;4.60;;;;;;;12.23;89.66;100601.91;4355867;32;20088;-70
2021/10/20 04:01:43;;;;;;;4.45;4.25;;;;;;;11.87;89.70;100547.91;4354636;32;20078;-70
2021/10/20 04:04:08;;;;;;;6.07;5.78;;;;;;;12.21;89.90;100601.16;4350001;32;20092;-69
2021/10/20 04:06:34;;;;;;;4.53;4.32;;;;;;;12.23;90.21;100596.66;4369684;32;20061;-69
2021/10/20 04:09:00;;;;;;;5.72;5.43;;;;;;;12.22;89.88;100587.06;4355000;32;20169;-69
2021/10/20 04:11:25;;;;;;;4.68;4.47;;;;;;;12.25;90.15;100581.62;4366042;32;20952;-70
2021/10/20 04:13:51;;;;;;;4.45;4.25;;;;;;;12.25;89.85;100576.34;4358532;32;20330;-70
2021/10/20 04:16:16;;;;;;;4.50;4.30;;;;;;;12.27;89.87;100577.09;4350794;32;20077;-69
2021/10/20 04:18:41;;;;;;;4.70;4.50;;;;;;;12.28;89.67;100580.56;4354880;32;20085;-70
2021/10/20 04:21:07;;;;;;;5.60;5.40;;;;;;;12.32;90.13;100561.88;4378472;32;20110;-68
2021/10/20 04:23:32;;;;;;;4.50;4.30;;;;;;;12.41;89.08;100568.38;4353835;32;20621;-70
2021/10/20 04:25:57;;;;;;;5.90;5.62;;;;;;;12.46;88.40;100562.81;4367288;32;20073;-70
2021/10/20 04:28:23;;;;;;;4.37;4.18;;;;;;;11.99;89.07;100480.63;4354804;32;20901;-69
2021/10/20 04:30:48;;;;;;;4.50;4.30;;;;;;;12.38;88.69;100544.84;4364769;32;20256;-69
2021/10/20 04:33:13;;;;;;;4.93;4.72;;;;;;;12.39;89.16;100554.47;4355918;32;20196;-69
2021/10/20 04:35:39;;;;;;;4.60;4.40;;;;;;;11.87;89.02;100473.47;4376095;32;20330;-69
2021/10/20 04:38:04;;;;;;;6.35;6.05;;;;;;;12.35;89.27;100547.69;4370177;32;20100;-70
2021/10/20 04:40:29;;;;;;;4.80;4.60;;;;;;;12.34;89.14;100543.34;4376024;32;20057;-68
2021/10/20 04:42:55;;;;;;;4.57;4.37;;;;;;;12.03;89.31;100489.16;4361396;32;20442;-70
2021/10/20 04:45:20;;;;;;;4.80;4.60;;;;;;;12.41;89.56;100539.41;4374635;32;20075;-70
2021/10/20 04:47:46;;;;;;;4.40;4.20;;;;;;;12.50;88.67;100545.87;4366896;32;20105;-68
2021/10/20 04:50:11;;;;;;;5.20;5.00;;;;;;;12.52;88.50;100542.19;4350737;32;20073;-71
2021/10/20 04:52:36;;;;;;;4.80;4.60;;;;;;;12.58;88.33;100536.53;4377534;32;20069;-68
2021/10/20 04:55:05;;;;;;;6.45;6.15;;;;;;;12.58;88.04;100536.53;4347358;32;20115;-68
2021/10/20 04:57:31;;;;;;;4.60;4.40;;;;;;;12.57;88.22;100547.19;4377570;32;20066;-70
2021/10/20 04:59:56;;;;;;;5.40;5.18;;;;;;;12.58;88.25;100533.06;4340948;32;20138;-70
2021/10/20 05:02:22;;;;;;;4.50;4.30;;;;;;;12.58;88.28;100526.00;4367031;32;20215;-70
2021/10/20 05:04:47;;;;;;;4.65;4.45;;;;;;;12.60;88.62;100528.56;4353290;32;20088;-68
2021/10/20 05:07:13;;;;;;;4.62;4.43;;;;;;;12.64;88.47;100527.41;4370072;32;20540;-68
2021/10/20 05:09:39;;;;;;;4.60;4.40;;;;;;;12.64;87.96;100529.22;4351561;32;20076;-70
2021/10/20 05:12:05;;;;;;;6.28;5.97;;;;;;;12.58;88.26;100520.75;4349752;32;20062;-71
2021/10/20 05:14:30;;;;;;;5.03;4.72;;;;;;;12.54;88.53;100515.78;4364440;32;20089;-70
2021/10/20 05:16:56;;;;;;;4.72;4.53;;;;;;;12.57;88.56;100503.28;4360262;32;20086;-70
2021/10/20 05:19:21;;;;;;;4.80;4.60;;;;;;;12.48;88.65;100497.75;4353509;32;20686;-70
2021/10/20 05:21:46;;;;;;;5.00;4.80;;;;;;;12.26;89.02;100445.62;4370879;32;20155;-70
2021/10/20 05:24:12;;;;;;;5.97;5.68;;;;;;;12.47;88.77;100469.72;4397171;32;20083;-70
2021/10/20 05:26:37;;;;;;;4.80;4.60;;;;;;;12.56;88.81;100484.94;4378204;32;20565;-70
2021/10/20 05:29:02;;;;;;;6.40;6.10;;;;;;;12.58;88.40;100483.91;4365013;32;20101;-70
2021/10/20 05:31:28;;;;;;;4.60;4.40;;;;;;;12.65;88.39;100488.75;4375719;32;20338;-70
2021/10/20 05:33:53;;;;;;;4.75;4.55;;;;;;;11.29;88.36;100254.50;4366327;32;20095;-69
2021/10/20 05:36:18;;;;;;;5.50;5.20;;;;;;;12.71;87.88;100475.22;4366069;32;20085;-69
2021/10/20 05:38:44;;;;;;;4.55;4.35;;;;;;;12.72;87.47;100475.13;4366424;32;20197;-69
2021/10/20 05:41:09;;;;;;;6.47;6.18;;;;;;;12.72;87.83;100464.56;4381344;32;20873;-69
2021/10/20 05:43:34;;;;;;;4.93;4.60;;;;;;;12.69;87.69;100449.00;4376844;32;20056;-69
2021/10/20 05:46:00;;;;;;;5.85;5.55;;;;;;;12.75;87.73;100455.66;4372008;32;20157;-69
2021/10/20 05:48:25;;;;;;;4.60;4.40;;;;;;;12.41;87.46;100391.16;4360860;32;20608;-69
2021/10/20 05:50:51;;;;;;;5.03;4.82;;;;;;;12.72;87.91;100432.97;4375698;32;20124;-69
2021/10/20 05:53:16;;;;;;;5.18;4.87;;;;;;;12.72;87.72;100438.25;4380280;32;20167;-69
2021/10/20 05:55:43;;;;;;;4.90;4.70;;;;;;;12.72;87.92;100430.34;4380722;32;20061;-69
2021/10/20 05:58:09;;;;;;;6.22;5.93;;;;;;;12.75;87.83;100430.16;4376720;32;20065;-70
2021/10/20 06:00:34;;;;;;;4.80;4.60;;;;;;;12.49;88.21;100371.31;4380116;32;20262;-70
2021/10/20 06:02:59;;;;;;;6.07;5.78;;;;;;;12.80;87.94;100410.59;4388171;32;20080;-70
2021/10/20 06:05:25;;;;;;;4.70;4.50;;;;;;;12.80;87.96;100407.94;4389772;32;20602;-70
2021/10/20 06:07:51;;;;;;;4.60;4.40;;;;;;;12.80;87.75;100414.06;4379645;32;20083;-71
2021/10/20 06:10:16;;;;;;;4.78;4.57;;;;;;;12.80;87.87;100407.94;4377788;32;20080;-69
2021/10/20 06:12:41;;;;;;;4.70;4.50;;;;;;;12.82;88.47;100409.53;4366056;32;20069;-69
2021/10/20 06:15:07;;;;;;;6.03;5.72;;;;;;;12.83;87.91;100416.50;4375983;32;20072;-70
2021/10/20 06:17:34;;;;;;;4.50;4.30;;;;;;;12.83;88.30;100408.59;4390335;32;20070;-70
2021/10/20 06:19:59;;;;;;;5.60;5.35;;;;;;;12.79;88.87;100396.56;4379623;32;20698;-69
2021/10/20 06:22:25;;;;;;;4.60;4.40;;;;;;;12.83;88.78;100389.28;4384670;32;20497;-72
2021/10/20 06:24:50;;;;;;;4.70;4.50;;;;;;;12.92;88.45;100380.78;4382032;32;20587;-70
2021/10/20 06:27:15;;;;;;;5.55;5.30;;;;;;;12.96;88.27;100387.53;4387874;32;20457;-70
2021/10/20 06:29:41;;;;;;;4.50;4.30;;;;;;;13.01;87.41;100388.09;4378439;32;20089;-71
2021/10/20 06:32:06;;;;;;;5.87;5.60;;;;;;;12.89;87.16;100355.50;4394635;32;20711;-70
2021/10/20 06:34:31;;;;;;;4.90;4.70;;;;;;;13.11;87.21;100370.72;4377548;32;20085;-70
2021/10/20 06:36:57;;;;;;;4.57;4.37;;;;;;;13.11;87.46;100365.44;4396718;32;20155;-70
2021/10/20 06:39:24;;;;;;;5.95;5.65;;;;;;;13.04;87.20;100364.16;4375027;32;20095;-69
2021/10/20 06:41:49;;;;;;;4.50;4.30;;;;;;;13.14;87.13;100386.28;4391201;32;20085;-70
2021/10/20 06:44:15;;;;;;;6.15;5.85;;;;;;;13.11;87.14;100380.38;4391037;32;20140;-70
2021/10/20 06:46:40;;;;;;;5.05;4.85;;;;;;;13.12;87.23;100382.91;4390583;32;20080;-70
2021/10/20 06:49:06;;;;;;;4.65;4.45;;;;;;;12.34;87.29;100241.56;4381236;32;20088;-70
2021/10/20 06:51:31;;;;;;;4.50;4.30;;;;;;;13.27;87.05;100373.13;4388757;32;20081;-70
2021/10/20 06:53:58;;;;;;;5.47;4.90;;;;;;;13.36;86.28;100367.25;4385627;32;20061;-70
2021/10/20 06:56:23;;;;;;;6.32;6.03;;;;;;;13.46;85.88;100375.38;4379043;32;20175;-70
2021/10/20 06:58:48;;;;;;;4.97;4.78;;;;;;;12.49;85.61;100188.88;4378820;32;20123;-70
2021/10/20 07:01:14;;;;;;;6.50;6.20;;;;;;;13.63;84.75;100349.59;4362520;32;20544;-69
2021/10/20 07:03:39;;;;;;;4.53;4.32;;;;;;;13.71;85.19;100363.97;4381145;32;20061;-70
2021/10/20 07:06:05;;;;;;;4.70;4.50;;;;;;;13.45;84.58;100314.84;4393460;32;20100;-70
2021/10/20 07:08:30;;;;;;;4.85;4.65;;;;;;;12.69;84.45;100193.59;4389700;32;20087;-70
2021/10/20 07:10:55;;;;;;;5.22;5.03;;;;;;;13.79;84.87;100381.88;4367700;32;20077;-70
2021/10/20 07:13:21;;;;;;;6.53;6.22;;;;;;;13.79;85.06;100389.78;4389298;32;20503;-70
2021/10/20 07:15:47;;;;;;;5.20;4.80;;;;;;;13.79;85.54;100387.16;4380666;32;20139;-69
2021/10/20 07:18:13;;;;;;;5.07;4.87;;;;;;;13.35;85.13;100327.84;4376446;32;20096;-69
2021/10/20 07:20:39;;;;;;;4.62;4.43;;;;;;;13.81;85.70;100408.12;4388204;32;20146;-70
2021/10/20 07:23:04;;;;;;;4.70;4.50;;;;;;;13.86;85.71;100390.19;4365743;32;20402;-69
2021/10/20 07:25:30;;;;;;;5.60;5.40;;;;;;;13.91;85.55;100394.19;4381625;32;20087;-70
2021/10/20 07:27:55;;;;;;;5.22;4.95;;;;;;;13.96;84.52;100381.50;4377515;32;20060;-68
2021/10/20 07:30:20;;;;;;;6.30;6.00;;;;;;;14.05;84.66;100382.66;4362891;32;20073;-69
2021/10/20 07:32:46;;;;;;;4.65;4.45;;;;;;;14.07;84.26;100374.59;4367348;32;20382;-70
2021/10/20 07:35:13;;;;;;;5.37;5.07;;;;;;;14.12;83.52;100393.59;4361105;32;20524;-71
2021/10/20 07:37:38;;;;;;;4.70;4.50;;;;;;;14.16;83.99;100416.19;4373994;32;20256;-71
2021/10/20 07:40:04;;;;;;;4.80;4.60;;;;;;;14.16;84.05;100389.78;4376466;32;20084;-73
2021/10/20 07:42:29;;;;;;;5.20;5.00;;;;;;;14.13;84.41;100380.31;4384687;32;20070;-72
2021/10/20 07:44:55;;;;;;;4.93;4.72;;;;;;;14.21;84.26;100386.81;4363405;32;20089;-74
2021/10/20 07:47:24;;;;;;;6.18;5.87;;;;;;;14.23;84.37;100374.34;4374977;32;20064;-71
2021/10/20 07:49:49;;;;;;;4.78;4.57;;;;;;;14.23;84.22;100364.66;4393273;32;20203;-72
2021/10/20 07:52:17;;;;;;;5.85;5.57;;;;;;;14.32;84.45;100368.41;4386023;32;20069;-71
2021/10/20 07:54:42;;;;;;;4.80;4.60;;;;;;;14.27;84.18;100350.28;4367333;32;20571;-73
2021/10/20 07:57:08;;;;;;;5.00;4.80;;;;;;;14.44;84.04;100367.50;4387532;32;20144;-68
2021/10/20 07:59:33;;;;;;;4.90;4.70;;;;;;;14.48;83.83;100363.69;4367269;32;20082;-70
2021/10/20 08:01:59;;;;;;;4.70;4.50;;;;;;;14.51;84.16;100359.97;4397189;32;20519;-71
2021/10/20 08:04:24;;;;;;;6.45;6.15;;;;;;;14.52;84.05;100340.53;4362521;32;20123;-71
2021/10/20 08:06:49;;;;;;;5.50;5.20;;;;;;;14.45;83.18;100340.16;4366590;32;20080;-71
2021/10/20 08:09:15;;;;;;;5.53;5.32;;;;;;;14.48;84.28;100339.09;4374185;32;20073;-72
2021/10/20 08:11:40;;;;;;;4.70;4.50;;;;;;;14.45;83.83;100328.72;4365399;32;20085;-71
2021/10/20 08:14:06;;;;;;;4.70;4.50;;;;;;;14.37;84.04;100329.28;4387754;32;20085;-69
2021/10/20 08:16:31;;;;;;;5.50;5.20;;;;;;;14.44;84.83;100337.62;4374050;32;20091;-70
2021/10/20 08:18:56;;;;;;;5.12;4.93;;;;;;;14.50;84.33;100287.84;4378626;32;20077;-70
2021/10/20 08:21:22;;;;;;;6.35;6.05;;;;;;;14.36;85.03;100278.31;4381644;32;20066;-70
2021/10/20 08:23:47;;;;;;;5.55;5.25;;;;;;;13.62;85.70;100152.81;4380618;32;20076;-73
2021/10/20 08:26:13;;;;;;;5.57;5.30;;;;;;;14.41;85.47;100303.53;4372830;32;20100;-70
2021/10/20 08:28:38;;;;;;;4.90;4.70;;;;;;;14.40;85.91;100334.38;4362519;32;20146;-71
2021/10/20 08:31:03;;;;;;;4.87;4.68;;;;;;;14.16;86.64;100269.22;4367517;32;20088;-70
2021/10/20 08:33:29;;;;;;;4.72;4.53;;;;;;;14.41;86.33;100280.59;4389332;32;20575;-70
2021/10/20 08:35:54;;;;;;;4.68;4.47;;;;;;;14.56;85.97;100276.00;4393827;32;20061;-73
2021/10/20 08:38:20;;;;;;;6.62;6.22;;;;;;;14.46;85.32;100228.28;4364906;32;20216;-73
2021/10/20 08:40:46;;;;;;;4.70;4.50;;;;;;;14.93;83.70;100281.09;4393796;32;20702;-72
2021/10/20 08:43:15;;;;;;;5.07;4.87;;;;;;;15.06;83.48;100266.00;4367809;32;20066;-71
2021/10/20 08:45:40;;;;;;;5.60;5.37;;;;;;;15.18;81.54;100256.25;4373189;32;20073;-71
2021/10/20 08:48:06;;;;;;;5.45;5.15;;;;;;;15.14;81.64;100246.91;4385458;32;20135;-69
2021/10/20 08:50:32;;;;;;;4.87;4.68;;;;;;;15.32;80.93;100265.75;4403919;32;20091;-70
2021/10/20 08:52:58;;;;;;;4.95;4.75;;;;;;;15.39;80.64;100268.75;4386535;32;21123;-70
2021/10/20 08:55:23;;;;;;;6.85;6.55;;;;;;;15.37;79.78;100263.56;4379982;32;20425;-70
2021/10/20 08:57:49;;;;;;;4.97;4.78;;;;;;;15.38;80.37;100269.72;4377079;32;20781;-71
2021/10/20 09:00:15;;;;;;;5.00;4.80;;;;;;;15.35;80.05;100274.28;4367420;32;20099;-71
2021/10/20 09:02:41;;;;;;;5.20;5.00;;;;;;;15.40;79.40;100276.56;4368287;32;20062;-70
2021/10/20 09:05:08;;;;;;;5.05;4.85;;;;;;;15.43;79.47;100264.88;4368411;32;20089;-72
2021/10/20 09:07:33;;;;;;;4.95;4.75;;;;;;;15.51;78.55;100258.03;4391036;32;20073;-70
2021/10/20 09:09:59;;;;;;;5.07;4.87;;;;;;;15.62;78.64;100256.34;4367059;32;20069;-73
2021/10/20 09:12:28;;;;;;;6.05;5.75;;;;;;;15.68;76.97;100247.91;4394147;32;20062;-71
2021/10/20 09:14:57;;;;;;;5.47;5.18;;;;;;;15.62;76.49;100209.56;4384906;32;20065;-69
2021/10/20 09:17:23;;;;;;;6.95;6.65;;;;;;;15.58;76.74;100192.25;4368049;32;20077;-70
2021/10/20 09:19:48;;;;;;;4.95;4.75;;;;;;;15.88;76.80;100225.16;4370630;32;20732;-70
2021/10/20 09:22:14;;;;;;;5.70;5.45;;;;;;;15.96;76.30;100209.47;4389160;32;20069;-72
2021/10/20 09:24:41;;;;;;;5.50;5.10;;;;;;;15.93;75.56;100207.91;4369165;32;20210;-72
2021/10/20 09:27:37;;;;;;;5.10;4.90;;;;;;;16.01;75.12;100201.16;4365464;32;20587;-69
2021/10/20 09:30:10;;;;;;;5.25;5.05;;;;;;;15.99;74.70;100208.38;4370421;32;20069;-73
2021/10/20 09:32:35;;;;;;;5.40;5.00;;;;;;;16.00;75.22;100192.38;4397464;32;20077;-72
2021/10/20 09:35:01;;;;;;;4.90;4.70;;;;;;;15.94;75.88;100219.34;4366982;32;20251;-74
2021/10/20 09:37:27;;;;;;;6.68;6.37;;;;;;;15.57;75.82;100156.19;4390013;32;20072;-69
2021/10/20 09:39:52;;;;;;;5.75;5.40;;;;;;;15.91;76.22;100204.53;4379458;32;20080;-70
2021/10/20 09:42:18;;;;;;;5.10;4.90;;;;;;;15.99;76.43;100222.44;4373534;32;20688;-70
2021/10/20 09:44:51;;;;;;;5.82;5.53;;;;;;;15.86;76.30;100187.41;4367826;32;20065;-70
2021/10/20 09:47:17;;;;;;;5.03;4.82;;;;;;;16.04;75.54;100207.03;4394882;32;20607;-71
2021/10/20 09:49:50;;;;;;;6.12;5.82;;;;;;;16.12;75.64;100209.87;4368872;32;20100;-70
2021/10/20 09:52:16;;;;;;;5.10;4.90;;;;;;;16.25;74.67;100204.38;4378548;32;20065;-70
2021/10/20 09:54:44;;;;;;;6.50;6.12;;;;;;;16.31;75.47;100180.03;4365426;32;20103;-71
2021/10/20 09:57:09;;;;;;;6.15;5.75;;;;;;;16.31;74.42;100195.09;4375644;32;20081;-70
2021/10/20 09:59:35;;;;;;;6.78;6.43;;;;;;;16.24;75.22;100192.13;4363315;32;20583;-70
2021/10/20 10:02:00;;;;;;;5.03;4.82;;;;;;;16.18;75.49;100178.56;4369873;32;20097;-70
2021/10/20 10:04:26;;;;;;;5.70;5.43;;;;;;;16.12;74.95;100183.41;4361029;32;20073;-71
2021/10/20 10:06:51;;;;;;;5.00;4.80;;;;;;;16.07;76.04;100182.13;4364935;32;20073;-70
2021/10/20 10:09:17;;;;;;;4.93;4.72;;;;;;;16.04;75.78;100182.38;4371323;32;20378;-70
2021/10/20 10:11:52;;;;;;;6.28;5.97;;;;;;;15.99;76.63;100192.50;4364702;32;20464;-70
2021/10/20 10:14:21;;;;;;;5.30;5.00;;;;;;;15.90;76.39;100189.66;4368197;32;20074;-71
2021/10/20 10:16:47;;;;;;;5.00;4.80;;;;;;;15.90;76.06;100187.00;4362139;32;20643;-70
2021/10/20 10:19:12;;;;;;;5.32;5.10;;;;;;;15.82;76.51;100180.69;4365246;32;20164;-72
2021/10/20 10:21:42;;;;;;;6.70;6.40;;;;;;;15.75;77.58;100169.75;4362202;32;20062;-71
2021/10/20 10:24:15;;;;;;;5.85;5.55;;;;;;;15.73;79.58;100166.37;4366463;32;20113;-70
2021/10/20 10:27:01;;;;;;;6.35;6.05;;;;;;;15.67;79.97;100185.38;4372936;32;20069;-69
2021/10/20 10:29:26;;;;;;;5.40;5.18;;;;;;;15.64;81.80;100178.53;4380161;32;20081;-69
2021/10/20 10:31:51;;;;;;;4.80;4.60;;;;;;;15.59;82.01;100171.94;4351074;32;20342;-72
2021/10/20 10:34:31;;;;;;;5.30;5.10;;;;;;;15.68;81.53;100181.78;4366524;32;20703;-70
2021/10/20 10:36:58;;;;;;;5.20;5.00;;;;;;;15.65;82.67;100179.37;4342215;32;20069;-69
2021/10/20 10:39:24;;;;;;;5.22;5.00;;;;;;;15.66;82.31;100194.28;4379764;32;20064;-70
2021/10/20 10:41:49;;;;;;;5.87;5.57;;;;;;;15.71;82.61;100195.56;4341785;32;20158;-71
2021/10/20 10:44:15;;;;;;;5.10;4.90;;;;;;;15.76;83.25;100189.94;4366053;32;20260;-72
2021/10/20 10:47:07;;;;;;;6.28;5.97;;;;;;;15.76;82.52;100171.44;4363128;32;20077;-70
2021/10/20 10:49:43;;;;;;;5.80;5.50;;;;;;;15.93;81.90;100184.09;4373889;32;20454;-70
2021/10/20 10:52:19;;;;;;;5.40;5.10;;;;;;;15.91;82.65;100201.91;4364605;32;20073;-72
2021/10/20 10:55:18;;;;;;;6.32;6.03;;;;;;;15.88;82.53;100210.13;4371935;32;20066;-72
2021/10/20 10:57:52;;;;;;;6.28;5.97;;;;;;;15.73;82.20;100193.66;4362988;32;20767;-71
2021/10/20 11:00:17;;;;;;;5.45;5.15;;;;;;;15.84;83.42;100210.50;4349284;32;20168;-70
2021/10/20 11:02:56;;;;;;;6.32;6.03;;;;;;;15.88;83.56;100207.47;4366571;32;20679;-70
2021/10/20 11:05:29;;;;;;;4.90;4.70;;;;;;;15.77;83.01;100188.97;4353427;32;20300;-70
2021/10/20 11:08:11;;;;;;;6.35;6.05;;;;;;;15.97;83.38;100212.97;4353142;32;20080;-69
2021/10/20 11:10:54;;;;;;;5.10;4.90;;;;;;;16.05;82.98;100213.16;4362127;32;20751;-70
2021/10/20 11:13:19;;;;;;;5.43;5.22;;;;;;;16.12;81.30;100190.53;4389560;32;20129;-70
2021/10/20 11:15:45;;;;;;;6.40;6.10;;;;;;;16.41;79.65;100203.94;4341540;32;20812;-71
2021/10/20 11:18:11;;;;;;;5.28;4.97;;;;;;;16.49;79.48;100205.94;4360548;32;20069;-70
2021/10/20 11:20:38;;;;;;;5.40;5.20;;;;;;;15.77;79.04;100098.19;4371083;32;20077;-70